Time;durP1;ratioP1;P1;durP2;ratioP2;P2;SDS_P1;SDS_P2;PMS_P1;PMS_P2;Temp;Humidity;BMP_temperature;BMP_pressure;BME280_temperature;BME280_humidity;BME280_pressure;Samples;Min_cycle;Max_cycle;Signal;HPM_P1;HPM_P2
2022/07/06 00:01:30;;;;;;;1.65;1.20;;;;;;;27.81;37.36;102320.34;5030039;28;20499;-67
2022/07/06 00:03:56;;;;;;;1.77;1.23;;;;;;;27.80;37.30;102316.78;5030062;28;20050;-67
2022/07/06 00:06:22;;;;;;;3.05;1.40;;;;;;;27.80;37.18;102322.13;5029610;28;20033;-67
2022/07/06 00:08:47;;;;;;;1.85;1.23;;;;;;;27.79;37.25;102319.50;5047866;28;20723;-67
2022/07/06 00:11:13;;;;;;;1.83;1.10;;;;;;;27.79;37.43;102322.19;5048382;28;20025;-67
2022/07/06 00:13:38;;;;;;;2.47;1.27;;;;;;;27.78;37.43;102315.06;5049683;28;20033;-67
2022/07/06 00:16:04;;;;;;;2.38;1.20;;;;;;;27.76;37.30;102312.44;5049817;28;20065;-67
2022/07/06 00:18:30;;;;;;;1.90;1.20;;;;;;;27.79;37.73;102308.78;5043624;28;20586;-67
2022/07/06 00:20:55;;;;;;;2.00;1.10;;;;;;;27.76;37.22;102308.88;5029498;28;20105;-67
2022/07/06 00:23:21;;;;;;;1.60;1.17;;;;;;;27.74;37.45;102311.63;5042596;28;20039;-67
2022/07/06 00:25:48;;;;;;;2.03;1.30;;;;;;;27.74;37.59;102311.63;5049292;28;20032;-67
2022/07/06 00:28:13;;;;;;;2.03;1.15;;;;;;;27.73;37.40;102312.56;5048752;28;20032;-67
2022/07/06 00:30:39;;;;;;;1.60;1.10;;;;;;;27.74;37.47;102303.59;5047333;28;20040;-67
2022/07/06 00:33:04;;;;;;;2.75;1.13;;;;;;;27.74;37.53;102306.28;5049313;28;20032;-67
2022/07/06 00:35:30;;;;;;;1.83;1.17;;;;;;;27.73;37.56;102309.00;5047945;28;20368;-67
2022/07/06 00:37:55;;;;;;;2.17;1.08;;;;;;;27.72;37.34;102310.81;5048803;28;20040;-67
2022/07/06 00:40:20;;;;;;;1.63;1.10;;;;;;;27.72;37.40;102316.16;5031731;28;20087;-67
2022/07/06 00:42:47;;;;;;;2.20;1.10;;;;;;;27.72;37.57;102313.47;5027411;28;20036;-67
2022/07/06 00:45:14;;;;;;;2.58;1.02;;;;;;;27.73;37.40;102311.69;5028796;28;20084;-67
2022/07/06 00:47:41;;;;;;;1.95;1.10;;;;;;;27.70;37.64;102315.34;5027576;28;20025;-67
2022/07/06 00:50:15;;;;;;;2.00;1.10;;;;;;;27.72;37.51;102310.81;5028857;28;20104;-67
2022/07/06 00:52:45;;;;;;;1.20;1.00;;;;;;;27.71;37.61;102311.72;5023059;28;20032;-67
2022/07/06 00:55:10;;;;;;;1.48;1.10;;;;;;;27.70;37.73;102317.13;5028808;28;20099;-67
2022/07/06 00:57:37;;;;;;;1.58;1.00;;;;;;;27.68;37.72;102313.66;5028584;28;20029;-67
2022/07/06 01:00:08;;;;;;;1.92;1.10;;;;;;;27.65;37.78;102319.09;5027119;28;20060;-67
2022/07/06 01:02:34;;;;;;;1.67;1.00;;;;;;;27.67;37.60;102314.56;5028824;28;20029;-67
2022/07/06 01:05:01;;;;;;;2.10;1.00;;;;;;;27.66;37.82;102313.69;5028659;28;20555;-67
2022/07/06 01:07:27;;;;;;;1.80;1.10;;;;;;;27.67;37.49;102311.91;5033521;28;20057;-67
2022/07/06 01:09:53;;;;;;;2.00;1.20;;;;;;;27.68;37.46;102308.28;5047322;28;20542;-67
2022/07/06 01:12:19;;;;;;;2.65;1.20;;;;;;;27.66;37.75;102311.03;5048246;28;20052;-66
2022/07/06 01:14:45;;;;;;;2.33;1.20;;;;;;;27.64;37.61;102314.66;5048545;28;20041;-67
2022/07/06 01:17:11;;;;;;;1.92;1.15;;;;;;;27.64;37.38;102312.88;5046583;28;20364;-67
2022/07/06 01:19:36;;;;;;;2.47;1.20;;;;;;;27.64;37.49;102323.59;5048301;28;20013;-67
2022/07/06 01:22:02;;;;;;;1.77;1.00;;;;;;;27.65;37.63;102309.25;5048340;28;20566;-67
2022/07/06 01:24:27;;;;;;;1.83;1.02;;;;;;;27.64;37.83;102312.00;5034705;28;20076;-67
2022/07/06 01:26:53;;;;;;;1.70;1.10;;;;;;;27.62;37.61;102304.03;5028690;28;20033;-67
2022/07/06 01:29:19;;;;;;;1.58;1.10;;;;;;;27.63;37.60;102307.59;5028133;28;20052;-67
2022/07/06 01:31:48;;;;;;;1.75;1.00;;;;;;;27.62;37.63;102312.06;5028446;28;20041;-67
2022/07/06 01:34:13;;;;;;;1.15;0.90;;;;;;;27.61;37.88;102309.44;5028410;28;20112;-67
2022/07/06 01:36:38;;;;;;;2.70;1.20;;;;;;;27.58;37.69;102304.16;5028354;28;20498;-67
2022/07/06 01:39:04;;;;;;;1.88;1.10;;;;;;;27.58;37.72;102301.50;5027763;28;20033;-67
2022/07/06 01:41:29;;;;;;;2.10;1.13;;;;;;;27.58;37.84;102301.50;5028352;28;20079;-67
2022/07/06 01:43:54;;;;;;;2.03;1.00;;;;;;;27.56;37.76;102304.25;5036552;28;20021;-67
2022/07/06 01:46:20;;;;;;;1.52;1.00;;;;;;;27.56;37.61;102301.56;5048155;28;20140;-67
2022/07/06 01:48:45;;;;;;;1.40;1.00;;;;;;;27.54;37.71;102292.69;5047879;28;20067;-67
2022/07/06 01:51:11;;;;;;;1.67;1.02;;;;;;;27.54;37.53;102292.69;5046399;28;20026;-68
2022/07/06 01:53:37;;;;;;;1.33;1.02;;;;;;;27.54;37.61;102295.38;5047897;28;20033;-67
2022/07/06 01:56:03;;;;;;;1.95;1.00;;;;;;;27.54;37.58;102292.69;5028297;28;20021;-67
2022/07/06 01:58:29;;;;;;;1.65;1.20;;;;;;;27.51;37.99;102295.47;5027972;28;20033;-66
2022/07/06 02:00:54;;;;;;;1.40;0.98;;;;;;;27.53;37.75;102290.06;5026599;28;20080;-67
2022/07/06 02:03:19;;;;;;;1.35;0.90;;;;;;;27.53;38.08;102296.28;5026813;28;20659;-67
2022/07/06 02:05:45;;;;;;;3.13;1.00;;;;;;;27.53;37.56;102303.47;5028306;28;20128;-67
2022/07/06 02:08:10;;;;;;;1.08;0.90;;;;;;;27.51;37.90;102290.09;5037547;28;20391;-67
2022/07/06 02:10:35;;;;;;;1.77;1.00;;;;;;;27.51;37.66;102287.44;5051317;28;20047;-67
2022/07/06 02:13:01;;;;;;;2.30;1.20;;;;;;;27.50;37.69;102288.34;5051954;28;20051;-67
2022/07/06 02:15:26;;;;;;;1.23;0.90;;;;;;;27.46;37.88;102287.56;5050520;28;20037;-66
2022/07/06 02:17:51;;;;;;;1.65;1.00;;;;;;;27.48;37.79;102282.16;5051895;28;20067;-67
2022/07/06 02:20:17;;;;;;;1.38;1.00;;;;;;;27.49;37.96;102277.69;5050921;28;20467;-67
2022/07/06 02:22:42;;;;;;;0.98;0.80;;;;;;;27.46;37.74;102278.66;5051385;28;20427;-66
2022/07/06 02:25:08;;;;;;;1.15;0.90;;;;;;;27.47;37.68;102283.09;5051107;28;20107;-67
2022/07/06 02:27:33;;;;;;;1.58;1.00;;;;;;;27.48;37.69;102289.31;5051575;28;20032;-67
2022/07/06 02:29:58;;;;;;;1.60;0.90;;;;;;;27.47;37.75;102291.13;5051028;28;20033;-67
2022/07/06 02:32:24;;;;;;;1.77;1.00;;;;;;;27.46;37.74;102281.31;5044842;28;20549;-66
2022/07/06 02:34:49;;;;;;;1.05;0.90;;;;;;;27.45;37.49;102280.44;5031197;28;20079;-67
2022/07/06 02:37:15;;;;;;;1.65;1.00;;;;;;;27.45;37.74;102288.47;5031707;28;20659;-66
2022/07/06 02:39:40;;;;;;;1.58;1.00;;;;;;;27.43;37.92;102290.38;5031418;28;20021;-67
2022/07/06 02:42:05;;;;;;;1.27;0.93;;;;;;;27.43;37.85;102287.69;5031557;28;20029;-67
2022/07/06 02:44:31;;;;;;;1.58;1.00;;;;;;;27.44;37.96;102283.22;5031278;28;20411;-67
2022/07/06 02:46:56;;;;;;;1.10;0.75;;;;;;;27.43;37.70;102289.47;5031159;28;20924;-67
2022/07/06 02:49:22;;;;;;;1.13;0.90;;;;;;;27.43;38.06;102289.47;5041983;28;20033;-67
2022/07/06 02:51:47;;;;;;;1.42;1.08;;;;;;;27.40;37.72;102289.56;5050869;28;20112;-67
2022/07/06 02:54:12;;;;;;;1.40;0.90;;;;;;;27.39;38.11;102288.69;5046814;28;20037;-66
2022/07/06 02:56:38;;;;;;;1.30;0.90;;;;;;;27.41;38.03;102294.00;5030704;28;20025;-66
2022/07/06 02:59:03;;;;;;;1.20;0.90;;;;;;;27.42;37.82;102296.66;5030861;28;20499;-67
2022/07/06 03:01:29;;;;;;;1.67;1.08;;;;;;;27.39;37.96;102298.53;5031114;28;20025;-67
2022/07/06 03:03:54;;;;;;;1.00;0.80;;;;;;;27.39;37.83;102301.22;5030623;28;20025;-67
2022/07/06 03:06:19;;;;;;;1.70;1.00;;;;;;;27.38;37.81;102296.81;5030678;28;20594;-67
2022/07/06 03:08:45;;;;;;;1.38;1.02;;;;;;;27.36;37.79;102301.34;5047743;28;20096;-67
2022/07/06 03:11:10;;;;;;;1.48;0.90;;;;;;;27.36;37.85;102304.00;5050502;28;20087;-67
2022/07/06 03:13:35;;;;;;;1.42;0.90;;;;;;;27.37;37.74;102301.28;5050927;28;20028;-67
2022/07/06 03:16:01;;;;;;;1.35;0.90;;;;;;;27.38;37.87;102304.84;5050279;28;20056;-67
2022/07/06 03:18:27;;;;;;;1.52;0.90;;;;;;;27.36;38.16;102299.53;5050264;28;20033;-67
2022/07/06 03:20:53;;;;;;;1.50;0.98;;;;;;;27.35;38.05;102302.25;5032542;28;20528;-67
2022/07/06 03:23:18;;;;;;;1.80;0.90;;;;;;;27.33;38.30;102306.78;5050366;28;20040;-67
2022/07/06 03:25:43;;;;;;;1.30;0.90;;;;;;;27.33;37.94;102312.13;5049538;28;20055;-67
2022/07/06 03:28:09;;;;;;;1.30;0.95;;;;;;;27.32;37.95;102308.59;5042637;28;20100;-67
2022/07/06 03:30:34;;;;;;;1.67;0.82;;;;;;;27.33;38.17;102309.44;5030445;28;20487;-67
2022/07/06 03:33:00;;;;;;;1.30;0.80;;;;;;;27.32;38.06;102311.28;5038146;28;20044;-67
2022/07/06 03:35:25;;;;;;;1.40;0.93;;;;;;;27.29;38.25;102315.84;5048154;28;20153;-67
2022/07/06 03:37:50;;;;;;;1.17;0.80;;;;;;;27.29;37.91;102310.50;5050061;28;20036;-67
2022/07/06 03:40:16;;;;;;;1.10;0.80;;;;;;;27.31;38.12;102309.53;5050041;28;20025;-67
2022/07/06 03:42:41;;;;;;;1.25;0.93;;;;;;;27.27;38.09;102312.34;5032088;28;20040;-67
2022/07/06 03:45:07;;;;;;;1.20;0.90;;;;;;;27.28;38.07;102314.97;5049602;28;20114;-67
2022/07/06 03:47:33;;;;;;;1.92;0.90;;;;;;;27.26;38.07;102313.28;5049631;28;20106;-67
2022/07/06 03:49:58;;;;;;;1.10;0.90;;;;;;;27.28;37.94;102317.66;5048217;28;20475;-67
2022/07/06 03:52:23;;;;;;;1.17;0.90;;;;;;;27.27;37.91;102318.56;5046670;28;20037;-67
2022/07/06 03:54:49;;;;;;;1.80;0.82;;;;;;;27.28;38.22;102314.97;5029831;28;20029;-66
2022/07/06 03:57:14;;;;;;;2.13;0.98;;;;;;;27.27;38.16;102309.66;5029917;28;20179;-67
2022/07/06 03:59:40;;;;;;;1.38;0.90;;;;;;;27.26;38.22;102311.50;5029246;28;20041;-67
2022/07/06 04:02:05;;;;;;;0.90;0.70;;;;;;;27.25;38.17;102306.19;5029888;28;20044;-67
2022/07/06 04:04:31;;;;;;;1.15;0.90;;;;;;;27.25;38.03;102314.22;5030417;28;20032;-67
2022/07/06 04:06:57;;;;;;;1.17;0.88;;;;;;;27.24;38.15;102313.34;5030474;28;20083;-67
2022/07/06 04:09:22;;;;;;;1.38;0.90;;;;;;;27.25;38.14;102314.22;5049616;28;20115;-67
2022/07/06 04:11:47;;;;;;;1.50;0.90;;;;;;;27.24;38.28;102320.50;5049513;28;20064;-67
2022/07/06 04:14:12;;;;;;;1.35;0.90;;;;;;;27.23;38.00;102321.41;5049474;28;20056;-67
2022/07/06 04:16:38;;;;;;;1.25;0.88;;;;;;;27.22;38.07;102316.97;5049401;28;20021;-67
2022/07/06 04:19:03;;;;;;;0.98;0.80;;;;;;;27.20;38.30;102319.69;5047881;28;20463;-67
2022/07/06 04:21:29;;;;;;;1.00;0.70;;;;;;;27.20;38.25;102321.53;5048682;28;20089;-67
2022/07/06 04:23:54;;;;;;;1.15;0.90;;;;;;;27.22;38.35;102325.00;5045267;28;20926;-67
2022/07/06 04:26:19;;;;;;;1.45;0.90;;;;;;;27.21;38.25;102323.25;5029395;28;20246;-66
2022/07/06 04:28:45;;;;;;;1.77;0.80;;;;;;;27.17;38.09;102319.81;5029034;28;20113;-67
2022/07/06 04:31:10;;;;;;;1.20;0.82;;;;;;;27.17;38.07;102327.84;5028567;28;20068;-67
2022/07/06 04:33:36;;;;;;;1.23;0.88;;;;;;;27.16;38.34;102319.84;5029541;28;20040;-67
2022/07/06 04:36:01;;;;;;;1.10;0.82;;;;;;;27.18;38.34;102318.00;5028795;28;20029;-67
2022/07/06 04:38:26;;;;;;;1.27;0.80;;;;;;;27.16;38.28;102319.84;5036879;28;20747;-67
2022/07/06 04:40:52;;;;;;;1.15;0.80;;;;;;;27.15;38.25;102315.41;5048920;28;20510;-67
2022/07/06 04:43:17;;;;;;;1.50;0.70;;;;;;;27.15;38.14;102313.63;5049047;28;20020;-67
2022/07/06 04:45:43;;;;;;;1.63;0.93;;;;;;;27.16;38.20;102310.03;5047573;28;20049;-67
2022/07/06 04:48:08;;;;;;;1.33;0.80;;;;;;;27.16;38.15;102314.50;5048890;28;20475;-67
2022/07/06 04:50:34;;;;;;;1.85;0.90;;;;;;;27.16;38.07;102309.16;5048407;28;20037;-68
2022/07/06 04:52:59;;;;;;;0.95;0.85;;;;;;;27.16;38.23;102314.50;5048779;28;20036;-67
2022/07/06 04:55:24;;;;;;;1.15;0.80;;;;;;;27.18;38.15;102316.22;5033019;28;20044;-67
2022/07/06 04:57:51;;;;;;;1.23;0.70;;;;;;;27.16;37.96;102325.22;5046094;28;20077;-67
2022/07/06 05:00:17;;;;;;;1.00;0.90;;;;;;;27.17;38.12;102325.16;5046641;28;20028;-67
2022/07/06 05:02:42;;;;;;;1.80;1.00;;;;;;;27.17;38.06;102319.81;5036792;28;20375;-67
2022/07/06 05:05:09;;;;;;;0.90;0.70;;;;;;;27.16;37.97;102326.09;5034462;28;20029;-67
2022/07/06 05:07:39;;;;;;;2.20;0.90;;;;;;;27.18;37.94;102329.59;5039263;28;20029;-67
2022/07/06 05:10:05;;;;;;;1.85;0.90;;;;;;;27.17;37.97;102324.28;5028373;28;20037;-68
2022/07/06 05:12:31;;;;;;;0.90;0.70;;;;;;;27.19;38.06;102333.16;5027208;28;20054;-67
2022/07/06 05:14:57;;;;;;;1.48;0.90;;;;;;;27.17;38.05;102330.53;5028450;28;20025;-67
2022/07/06 05:17:22;;;;;;;1.20;0.75;;;;;;;27.19;38.07;102328.69;5026871;28;20021;-67
2022/07/06 05:19:48;;;;;;;1.85;0.85;;;;;;;27.20;37.68;102329.56;5028137;28;20452;-67
2022/07/06 05:22:13;;;;;;;0.82;0.70;;;;;;;27.20;37.89;102335.75;5027989;28;20045;-68
2022/07/06 05:24:39;;;;;;;1.00;0.70;;;;;;;27.20;38.02;102341.13;5028400;28;20025;-67
2022/07/06 05:27:04;;;;;;;1.40;0.80;;;;;;;27.21;37.96;102325.94;5028560;28;20033;-67
2022/07/06 05:29:29;;;;;;;1.00;0.77;;;;;;;27.20;37.92;102330.41;5028088;28;20025;-67
2022/07/06 05:31:55;;;;;;;1.23;0.70;;;;;;;27.22;37.87;102339.28;5028333;28;20124;-67
2022/07/06 05:34:20;;;;;;;1.48;0.90;;;;;;;27.24;37.76;102331.19;5027550;28;20025;-67
2022/07/06 05:36:46;;;;;;;1.00;0.77;;;;;;;27.22;38.03;102331.25;5027173;28;20402;-67
2022/07/06 05:39:11;;;;;;;1.58;0.80;;;;;;;27.21;38.17;102331.28;5027049;28;20494;-67
2022/07/06 05:41:36;;;;;;;0.90;0.70;;;;;;;27.21;37.74;102325.94;5028760;28;20777;-67
2022/07/06 05:44:02;;;;;;;1.27;0.80;;;;;;;27.22;37.82;102322.34;5031978;28;20456;-67
2022/07/06 05:46:28;;;;;;;0.95;0.70;;;;;;;27.21;38.29;102332.16;5032234;28;20133;-67
2022/07/06 05:51:37;;;;;;;1.02;0.68;;;;;;;27.17;37.94;102330.53;5032352;28;20081;-67
2022/07/06 05:54:02;;;;;;;1.48;0.80;;;;;;;27.17;38.19;102333.19;5037514;28;20119;-67
2022/07/06 05:56:28;;;;;;;1.00;0.70;;;;;;;27.19;38.02;102331.34;5032174;28;20471;-67
2022/07/06 05:58:53;;;;;;;0.95;0.70;;;;;;;27.18;38.11;102331.41;5031968;28;20041;-67
2022/07/06 06:01:18;;;;;;;1.45;0.70;;;;;;;27.21;37.80;102339.31;5032211;28;20021;-67
2022/07/06 06:03:44;;;;;;;0.75;0.68;;;;;;;27.17;38.16;102348.38;5032194;28;20753;-67
2022/07/06 06:06:09;;;;;;;1.00;0.60;;;;;;;27.16;38.12;102350.19;5030290;28;20487;-66
2022/07/06 06:08:35;;;;;;;0.70;0.68;;;;;;;27.16;38.02;102350.19;5048372;28;20029;-67
2022/07/06 06:11:00;;;;;;;1.02;0.70;;;;;;;27.17;37.99;102348.38;5041242;28;20117;-67
2022/07/06 06:13:25;;;;;;;0.75;0.63;;;;;;;27.17;38.07;102359.97;5031891;28;20036;-67
2022/07/06 06:15:51;;;;;;;1.08;0.70;;;;;;;27.17;38.06;102359.97;5031697;28;20085;-67
2022/07/06 06:18:19;;;;;;;1.10;0.68;;;;;;;27.17;38.11;102359.97;5030031;28;20030;-66
2022/07/06 06:20:45;;;;;;;1.02;0.70;;;;;;;27.18;38.22;102363.53;5031287;28;20040;-66
2022/07/06 06:23:11;;;;;;;1.40;0.70;;;;;;;27.18;37.65;102366.22;5030308;28;20444;-66
2022/07/06 06:25:38;;;;;;;1.00;0.70;;;;;;;27.17;37.93;102370.69;5031605;28;20112;-66
2022/07/06 06:28:05;;;;;;;1.90;0.73;;;;;;;27.16;38.02;102373.41;5031968;28;20415;-66
2022/07/06 06:30:30;;;;;;;1.20;0.70;;;;;;;27.18;37.96;102367.09;5031444;28;20049;-66
2022/07/06 06:33:06;;;;;;;1.10;0.80;;;;;;;27.17;38.06;102376.03;5031143;28;20122;-67
2022/07/06 06:35:31;;;;;;;0.90;0.77;;;;;;;27.19;38.13;102379.56;5031708;28;20649;-67
2022/07/06 06:37:56;;;;;;;1.23;0.88;;;;;;;27.18;38.19;102384.94;5030792;28;20039;-67
2022/07/06 06:40:22;;;;;;;1.17;0.75;;;;;;;27.19;38.05;102381.34;5031260;28;20017;-66
2022/07/06 06:42:47;;;;;;;1.35;0.80;;;;;;;27.19;37.90;102384.03;5031533;28;20124;-66
2022/07/06 06:45:13;;;;;;;1.58;0.70;;;;;;;27.19;38.14;102382.22;5031272;28;20551;-66
2022/07/06 06:47:38;;;;;;;1.35;0.80;;;;;;;27.19;38.05;102378.69;5031116;28;20040;-65
2022/07/06 06:50:04;;;;;;;1.10;0.63;;;;;;;27.19;38.13;102379.56;5030689;28;20064;-66
2022/07/06 06:52:29;;;;;;;1.13;0.80;;;;;;;27.20;38.35;102377.75;5049462;28;20037;-66
2022/07/06 06:54:55;;;;;;;1.00;0.70;;;;;;;27.18;37.83;102387.63;5033394;28;20044;-66
2022/07/06 06:57:20;;;;;;;1.13;0.75;;;;;;;27.19;38.19;102390.25;5030822;28;20037;-66
2022/07/06 06:59:46;;;;;;;1.33;0.80;;;;;;;27.19;38.13;102387.59;5030579;28;20044;-68
2022/07/06 07:02:11;;;;;;;0.73;0.60;;;;;;;27.20;38.10;102394.66;5031149;28;20442;-67
2022/07/06 07:04:37;;;;;;;1.45;0.70;;;;;;;27.21;38.23;102400.91;5036144;28;20033;-66
2022/07/06 07:07:02;;;;;;;1.40;0.77;;;;;;;27.20;38.33;102391.16;5045369;28;20033;-68
2022/07/06 07:09:27;;;;;;;1.10;0.80;;;;;;;27.20;38.32;102391.16;5030719;28;20075;-66
2022/07/06 07:11:54;;;;;;;2.55;0.70;;;;;;;27.21;38.11;102383.03;5031048;28;20064;-64
2022/07/06 07:14:20;;;;;;;0.80;0.60;;;;;;;27.23;38.21;102393.72;5030465;28;20052;-68
2022/07/06 07:16:45;;;;;;;2.15;0.70;;;;;;;27.21;38.37;102385.72;5030926;28;20025;-67
2022/07/06 07:19:10;;;;;;;5.97;0.75;;;;;;;27.23;38.33;102391.03;5049480;28;20060;-64
2022/07/06 07:21:36;;;;;;;1.30;0.70;;;;;;;27.22;38.71;102382.13;5041544;28;20030;-63
2022/07/06 07:24:01;;;;;;;2.47;0.68;;;;;;;27.25;38.73;102383.84;5024691;28;20029;-63
2022/07/06 07:26:27;;;;;;;0.88;0.70;;;;;;;27.30;39.00;102382.75;5027885;28;20058;-63
2022/07/06 07:28:52;;;;;;;3.47;0.90;;;;;;;27.35;38.97;102385.28;5028186;28;20037;-63
2022/07/06 07:31:17;;;;;;;3.22;0.85;;;;;;;27.39;38.84;102385.13;5027187;28;20021;-63
2022/07/06 07:33:43;;;;;;;4.28;0.80;;;;;;;27.44;39.01;102379.63;5028381;28;20108;-63
2022/07/06 07:36:08;;;;;;;2.78;0.90;;;;;;;27.51;38.80;102378.50;5028226;28;20032;-62
2022/07/06 07:38:33;;;;;;;2.58;0.80;;;;;;;27.58;38.58;102376.50;5025796;28;20702;-63
2022/07/06 07:40:59;;;;;;;1.38;0.88;;;;;;;27.61;38.69;102377.28;5027652;28;20030;-63
2022/07/06 07:43:24;;;;;;;4.63;0.80;;;;;;;27.66;38.65;102383.38;5027705;28;20778;-63
2022/07/06 07:45:49;;;;;;;1.23;0.70;;;;;;;27.70;38.70;102374.28;5034740;28;20065;-63
2022/07/06 07:48:15;;;;;;;4.57;0.70;;;;;;;27.74;38.71;102373.28;5047433;28;20029;-63
2022/07/06 07:50:41;;;;;;;1.48;0.70;;;;;;;27.79;38.65;102382.03;5046222;28;20162;-63
2022/07/06 07:53:07;;;;;;;2.70;0.80;;;;;;;27.83;38.16;102372.06;5047417;28;20029;-62
2022/07/06 07:55:32;;;;;;;1.90;0.80;;;;;;;27.85;38.66;102371.09;5032164;28;20494;-62
2022/07/06 07:57:58;;;;;;;3.05;0.70;;;;;;;27.88;38.76;102369.22;5026033;28;20514;-70
2022/07/06 08:00:24;;;;;;;3.38;0.80;;;;;;;27.89;39.27;102373.66;5033893;28;20040;-68
2022/07/06 08:02:49;;;;;;;5.43;0.98;;;;;;;27.88;39.53;102367.41;5027683;28;20492;-69
2022/07/06 08:05:15;;;;;;;7.57;0.93;;;;;;;27.92;39.48;102369.06;5025519;28;20025;-69
2022/07/06 08:07:43;;;;;;;4.35;0.85;;;;;;;28.01;39.60;102371.41;5027009;28;20075;-68
2022/07/06 08:10:10;;;;;;;2.25;0.80;;;;;;;28.05;39.24;102367.72;5026710;28;20068;-69
2022/07/06 08:12:36;;;;;;;1.77;0.77;;;;;;;28.13;39.05;102373.69;5026242;28;20479;-67
2022/07/06 08:15:01;;;;;;;1.98;0.90;;;;;;;28.16;38.96;102376.28;5027580;28;20030;-74
2022/07/06 08:17:27;;;;;;;2.08;0.80;;;;;;;28.24;39.29;102382.22;5027405;28;20407;-63
2022/07/06 08:19:52;;;;;;;3.10;0.80;;;;;;;28.30;38.95;102383.78;5026707;28;20044;-63
2022/07/06 08:22:18;;;;;;;3.55;0.80;;;;;;;28.34;38.31;102379.22;5033098;28;20040;-63
2022/07/06 08:24:43;;;;;;;3.22;0.75;;;;;;;28.37;38.40;102382.63;5025827;28;20033;-62
2022/07/06 08:27:09;;;;;;;3.47;0.85;;;;;;;28.35;38.54;102376.47;5026831;28;20033;-63
2022/07/06 08:29:34;;;;;;;3.95;0.82;;;;;;;28.41;38.48;102383.41;5027029;28;20032;-63
2022/07/06 08:31:59;;;;;;;1.63;0.70;;;;;;;28.42;38.29;102391.38;5026060;28;20487;-62
2022/07/06 08:34:25;;;;;;;2.88;0.82;;;;;;;28.41;38.08;102384.28;5026801;28;20083;-62
2022/07/06 08:36:50;;;;;;;1.92;0.90;;;;;;;28.44;38.34;102385.97;5026694;28;20087;-63
2022/07/06 08:39:17;;;;;;;3.78;0.95;;;;;;;28.45;37.91;102385.91;5026834;28;20107;-62
2022/07/06 08:41:47;;;;;;;1.73;0.80;;;;;;;28.48;37.67;102384.94;5025383;28;20025;-62
2022/07/06 08:44:13;;;;;;;1.63;0.75;;;;;;;28.47;37.61;102376.00;5026816;28;20036;-71
2022/07/06 08:46:39;;;;;;;2.58;0.85;;;;;;;28.36;38.52;102378.19;5026423;28;20119;-69
2022/07/06 08:49:06;;;;;;;2.78;0.70;;;;;;;28.50;38.10;102378.56;5024859;28;20044;-69
2022/07/06 08:51:34;;;;;;;2.55;0.90;;;;;;;28.49;37.91;102373.25;5025446;28;20033;-67
2022/07/06 08:53:59;;;;;;;4.28;0.90;;;;;;;28.61;37.79;102373.66;5035107;28;20510;-67
2022/07/06 08:56:25;;;;;;;2.97;0.90;;;;;;;28.67;37.93;102373.44;5024972;28;20029;-68
2022/07/06 08:58:50;;;;;;;1.10;0.70;;;;;;;28.71;38.20;102363.47;5037432;28;20064;-65
2022/07/06 09:01:17;;;;;;;1.80;0.90;;;;;;;28.77;37.28;102368.63;5044745;28;20055;-66
2022/07/06 09:03:45;;;;;;;2.95;0.90;;;;;;;28.70;36.66;102367.09;5046212;28;20421;-65
2022/07/06 09:06:11;;;;;;;2.92;0.77;;;;;;;28.63;35.71;102361.06;5045130;28;20116;-65
2022/07/06 09:08:36;;;;;;;4.72;0.80;;;;;;;28.61;35.15;102368.28;5028303;28;20037;-65
2022/07/06 09:11:03;;;;;;;2.00;0.70;;;;;;;28.62;35.80;102364.69;5025742;28;20029;-65
2022/07/06 09:13:28;;;;;;;2.50;0.90;;;;;;;28.63;35.08;102371.81;5024925;28;20030;-65
2022/07/06 09:15:54;;;;;;;1.95;0.77;;;;;;;28.63;34.43;102376.31;5026445;28;20086;-65
2022/07/06 09:18:21;;;;;;;2.67;0.70;;;;;;;28.59;34.22;102370.19;5024607;28;20032;-65
2022/07/06 09:20:47;;;;;;;2.80;0.65;;;;;;;28.60;33.72;102371.06;5027510;28;20040;-66
2022/07/06 09:23:16;;;;;;;3.28;0.70;;;;;;;28.53;33.46;102372.22;5045868;28;20029;-65
2022/07/06 09:25:51;;;;;;;1.25;0.57;;;;;;;28.53;33.00;102370.41;5045333;28;20108;-65
2022/07/06 09:28:16;;;;;;;3.17;0.70;;;;;;;28.62;33.02;102369.19;5045737;28;20025;-66
2022/07/06 09:30:42;;;;;;;6.88;0.65;;;;;;;28.67;33.05;102366.34;5046147;28;20538;-68
2022/07/06 09:33:08;;;;;;;3.80;0.50;;;;;;;28.67;32.99;102365.38;5046117;28;20036;-67
2022/07/06 09:35:38;;;;;;;3.22;0.70;;;;;;;28.58;32.35;102372.91;5029358;28;20039;-67
2022/07/06 09:38:03;;;;;;;1.85;0.70;;;;;;;28.53;32.06;102365.06;5023213;28;20499;-66
2022/07/06 09:40:35;;;;;;;3.15;0.50;;;;;;;28.59;32.46;102370.19;5022967;28;20037;-67
2022/07/06 09:43:18;;;;;;;9.82;0.70;;;;;;;28.63;32.20;102368.25;5023677;28;20044;-69
2022/07/06 09:45:50;;;;;;;9.75;0.85;;;;;;;28.73;34.17;102377.69;5043335;28;20053;-68
2022/07/06 09:48:27;;;;;;;1.52;0.60;;;;;;;28.54;32.08;102371.31;5042408;28;20098;-67
2022/07/06 09:51:02;;;;;;;4.55;0.80;;;;;;;28.56;32.11;102372.09;5029955;28;20029;-67
2022/07/06 09:53:28;;;;;;;2.05;0.52;;;;;;;28.43;32.20;102366.31;5025345;28;20021;-63
2022/07/06 09:55:57;;;;;;;3.42;0.60;;;;;;;28.53;31.53;102373.09;5025343;28;20685;-67
2022/07/06 09:58:24;;;;;;;2.00;0.50;;;;;;;28.63;32.22;102369.13;5024892;28;20121;-65
2022/07/06 10:00:49;;;;;;;6.82;0.50;;;;;;;28.56;31.86;102364.91;5025429;28;20120;-71
2022/07/06 10:03:16;;;;;;;5.22;0.90;;;;;;;28.67;31.89;102370.75;5031938;28;20091;-64
2022/07/06 10:05:47;;;;;;;9.18;0.80;;;;;;;28.75;31.99;102369.63;5033819;28;20044;-63
2022/07/06 10:08:14;;;;;;;4.00;0.80;;;;;;;28.70;31.19;102371.56;5041952;28;20057;-63
2022/07/06 10:10:41;;;;;;;4.50;0.70;;;;;;;28.67;31.44;102369.88;5038596;28;20033;-64
2022/07/06 10:13:09;;;;;;;9.88;0.73;;;;;;;28.67;31.44;102368.06;5031969;28;20029;-64
2022/07/06 10:15:36;;;;;;;4.57;0.63;;;;;;;28.54;31.52;102372.19;5032741;28;20037;-62
2022/07/06 10:18:04;;;;;;;3.05;0.80;;;;;;;28.65;32.03;102364.59;5031304;28;20088;-63
2022/07/06 10:20:36;;;;;;;4.55;0.70;;;;;;;28.75;31.74;102361.56;5031408;28;20030;-63
2022/07/06 10:23:03;;;;;;;8.02;0.70;;;;;;;28.85;32.14;102365.66;5037738;28;20064;-62
2022/07/06 10:25:28;;;;;;;2.88;0.60;;;;;;;28.80;31.95;102365.81;5038039;28;20029;-63
2022/07/06 10:27:55;;;;;;;2.17;0.60;;;;;;;28.85;32.46;102362.97;5033421;28;20398;-63
2022/07/06 10:30:22;;;;;;;10.18;0.80;;;;;;;28.91;32.44;102368.09;5036931;28;20850;-64
2022/07/06 10:32:50;;;;;;;3.97;0.75;;;;;;;28.82;32.24;102361.28;5031756;28;20030;-63
2022/07/06 10:35:18;;;;;;;8.93;0.88;;;;;;;28.82;32.56;102363.94;5045137;28;20052;-66
2022/07/06 10:37:44;;;;;;;13.30;0.70;;;;;;;28.92;32.14;102367.13;5037050;28;20636;-66
2022/07/06 10:43:02;;;;;;;5.22;0.90;;;;;;;28.79;32.63;102364.06;5032640;28;20471;-66
2022/07/06 10:45:27;;;;;;;;;;;;;;;28.83;32.94;102356.78;5037306;28;20098;-66
2022/07/06 10:48:11;;;;;;;3.73;1.00;;;;;;;28.81;32.76;102353.28;5039464;28;20294;-67
2022/07/06 10:50:40;;;;;;;;;;;;;;;28.81;33.01;102351.47;5042569;28;20033;-66
2022/07/06 10:53:34;;;;;;;6.68;0.80;;;;;;;28.73;33.38;102353.53;5028680;28;19944;-66
2022/07/06 10:56:04;;;;;;;4.63;0.75;;;;;;;28.74;33.24;102358.00;5041595;28;20033;-66
2022/07/06 10:58:52;;;;;;;1.92;0.65;;;;;;;28.70;33.32;102345.63;5033434;28;20045;-66
2022/07/06 11:01:20;;;;;;;4.25;0.68;;;;;;;28.66;33.29;102349.34;5036085;28;20530;-67
2022/07/06 11:04:04;;;;;;;3.75;0.70;;;;;;;28.62;33.40;102348.59;5034090;28;20040;-66
2022/07/06 11:06:32;;;;;;;3.17;0.70;;;;;;;28.60;33.92;102346.91;5036510;28;20060;-66
2022/07/06 11:09:06;;;;;;;4.82;0.70;;;;;;;28.65;33.67;102351.16;5027221;28;20212;-66
2022/07/06 11:11:35;;;;;;;7.55;0.80;;;;;;;28.69;33.46;102351.91;5026779;28;20083;-67
2022/07/06 11:14:06;;;;;;;4.45;0.90;;;;;;;28.61;32.59;102341.47;5037973;28;20139;-67
2022/07/06 11:16:36;;;;;;;3.58;0.70;;;;;;;28.59;32.66;102343.34;5043056;28;20440;-66
2022/07/06 11:19:14;;;;;;;7.07;1.10;;;;;;;28.55;32.63;102341.69;5029126;28;20404;-67
2022/07/06 11:21:48;;;;;;;3.70;0.50;;;;;;;28.46;32.51;102341.19;5043115;28;20029;-67
2022/07/06 11:24:19;;;;;;;3.00;0.70;;;;;;;28.51;32.33;102328.47;5040851;28;20053;-68
2022/07/06 11:26:48;;;;;;;5.57;0.80;;;;;;;28.58;32.72;102336.22;5041361;28;20101;-69
2022/07/06 11:29:14;;;;;;;2.22;0.60;;;;;;;28.55;31.67;102335.47;5039575;28;20041;-69